createdAt,value
2018-02-20T00:01:07.580Z,66.86
2018-02-20T00:03:35.890Z,67.08
2018-02-20T00:06:04.311Z,67.50
2018-02-20T00:08:32.631Z,67.39
2018-02-20T00:11:00.907Z,66.95
2018-02-20T00:13:29.272Z,66.55
2018-02-20T00:15:57.565Z,67.12
2018-02-20T00:18:25.881Z,67.34
2018-02-20T00:20:54.152Z,67.47
2018-02-20T00:23:22.542Z,67.20
2018-02-20T00:25:50.855Z,67.01
2018-02-20T00:28:19.165Z,67.33
2018-02-20T00:30:47.433Z,67.54
2018-02-20T00:33:15.696Z,67.65
2018-02-20T00:35:43.986Z,67.64
2018-02-20T00:38:12.251Z,68.06
2018-02-20T00:40:40.545Z,68.15
2018-02-20T00:43:08.817Z,68.40
2018-02-20T00:45:37.140Z,68.44
2018-02-20T00:48:05.404Z,68.31
2018-02-20T00:50:33.736Z,68.32
2018-02-20T00:53:02.007Z,68.62
2018-02-20T00:55:30.378Z,68.51
2018-02-20T00:57:58.624Z,68.65
2018-02-20T01:00:26.963Z,68.68
2018-02-20T01:02:55.246Z,68.82
2018-02-20T01:05:23.555Z,68.78
2018-02-20T01:07:51.865Z,68.41
2018-02-20T01:10:20.135Z,68.66
2018-02-20T01:12:48.435Z,68.45
2018-02-20T01:15:16.729Z,68.82
2018-02-20T01:17:45.074Z,68.97
2018-02-20T01:20:13.358Z,69.25
2018-02-20T01:22:41.728Z,69.23
2018-02-20T01:25:09.972Z,69.51
2018-02-20T01:27:38.548Z,69.43
2018-02-20T01:30:06.828Z,69.25
2018-02-20T01:32:35.163Z,69.22
2018-02-20T01:35:03.465Z,69.33
2018-02-20T01:37:31.762Z,68.77
2018-02-20T01:40:00.062Z,68.60
2018-02-20T01:42:28.336Z,68.99
2018-02-20T01:44:56.655Z,68.75
2018-02-20T01:47:24.951Z,69.07
2018-02-20T01:49:53.246Z,69.17
2018-02-20T01:52:21.521Z,69.70
2018-02-20T01:54:49.835Z,69.97
2018-02-20T01:57:18.099Z,69.58
2018-02-20T01:59:46.428Z,69.17
2018-02-20T02:02:14.704Z,69.74
2018-02-20T02:04:43.005Z,70.49
2018-02-20T02:07:11.304Z,70.66
2018-02-20T02:09:39.601Z,71.01
2018-02-20T02:12:07.881Z,71.50
2018-02-20T02:14:36.189Z,71.78
2018-02-20T02:17:04.817Z,71.79
2018-02-20T02:19:33.107Z,71.84
2018-02-20T02:22:01.465Z,71.91
2018-02-20T02:24:29.750Z,71.73
2018-02-20T02:26:58.055Z,70.64
2018-02-20T02:29:26.346Z,70.10
2018-02-20T02:31:54.640Z,70.54
2018-02-20T02:34:22.973Z,70.30
2018-02-20T02:36:51.225Z,70.81
2018-02-20T02:39:19.523Z,70.58
2018-02-20T02:41:47.807Z,70.46
2018-02-20T02:44:16.083Z,70.16
2018-02-20T02:46:44.356Z,70.31
2018-02-20T02:49:12.672Z,69.58
2018-02-20T02:51:40.945Z,69.28
2018-02-20T02:54:09.292Z,68.90
2018-02-20T02:56:37.560Z,68.48
2018-02-20T02:59:05.872Z,68.60
2018-02-20T03:01:34.190Z,68.64
2018-02-20T03:04:02.450Z,68.76
2018-02-20T03:06:30.759Z,68.99
2018-02-20T03:08:59.042Z,69.37
2018-02-20T03:11:27.332Z,69.39
2018-02-20T03:13:55.611Z,68.93
2018-02-20T03:16:23.924Z,69.21
2018-02-20T03:18:52.244Z,69.31
2018-02-20T03:21:20.524Z,69.48
2018-02-20T03:23:48.824Z,69.28
2018-02-20T03:26:17.101Z,68.36
2018-02-20T03:28:45.404Z,67.93
2018-02-20T03:31:13.688Z,68.29
2018-02-20T03:33:41.959Z,68.62
2018-02-20T03:36:10.288Z,69.37
2018-02-20T03:38:38.584Z,69.60
2018-02-20T03:41:06.878Z,68.98
2018-02-20T03:43:35.154Z,68.32
2018-02-20T03:46:03.487Z,68.62
2018-02-20T03:48:31.806Z,68.41
2018-02-20T03:51:00.095Z,68.58
2018-02-20T03:53:28.391Z,68.62
2018-02-20T03:55:56.673Z,68.49
2018-02-20T03:58:24.972Z,68.15
2018-02-20T04:00:53.256Z,68.34
2018-02-20T04:03:21.785Z,68.32
2018-02-20T04:05:50.131Z,68.47
2018-02-20T04:08:18.700Z,68.65
2018-02-20T04:10:47.025Z,68.89
2018-02-20T04:13:15.317Z,68.86
2018-02-20T04:15:43.605Z,68.71
2018-02-20T04:18:11.892Z,70.11
2018-02-20T04:20:40.200Z,70.48
2018-02-20T04:23:08.467Z,70.51
2018-02-20T04:25:36.788Z,70.53
2018-02-20T04:28:05.060Z,71.24
2018-02-20T04:30:33.374Z,71.82
2018-02-20T04:33:01.690Z,71.56
2018-02-20T04:35:29.995Z,71.03
2018-02-20T04:37:58.269Z,70.72
2018-02-20T04:40:26.562Z,70.57
2018-02-20T04:42:54.847Z,70.57
2018-02-20T04:45:23.147Z,70.35
2018-02-20T04:47:51.445Z,70.42
2018-02-20T04:50:20.631Z,69.94
2018-02-20T04:52:48.896Z,70.11
2018-02-20T04:55:17.196Z,70.54
2018-02-20T04:57:45.468Z,70.40
2018-02-20T05:00:13.801Z,70.48
2018-02-20T05:02:42.075Z,70.42
2018-02-20T05:05:10.369Z,69.91
2018-02-20T05:07:38.653Z,69.74
2018-02-20T05:10:07.687Z,69.17
2018-02-20T05:12:35.966Z,69.33
2018-02-20T05:15:04.251Z,69.15
2018-02-20T05:17:32.614Z,69.50
2018-02-20T05:20:00.927Z,69.75
2018-02-20T05:22:29.215Z,69.88
2018-02-20T05:24:57.575Z,70.08
2018-02-20T05:27:25.868Z,69.75
2018-02-20T05:29:54.182Z,69.57
2018-02-20T05:32:22.491Z,69.55
2018-02-20T05:34:50.787Z,69.58
2018-02-20T05:37:19.071Z,69.46
2018-02-20T05:39:47.347Z,69.66
2018-02-20T05:42:15.644Z,69.44
2018-02-20T05:44:43.903Z,69.59
2018-02-20T05:47:12.251Z,69.90
2018-02-20T05:49:40.536Z,69.70
2018-02-20T05:52:08.870Z,69.71
2018-02-20T05:54:37.139Z,69.92
2018-02-20T05:57:05.404Z,70.27
2018-02-20T05:59:33.730Z,70.56
2018-02-20T06:02:02.034Z,70.45
2018-02-20T06:04:30.326Z,70.44
2018-02-20T06:06:58.588Z,70.25
2018-02-20T06:09:26.912Z,69.69
2018-02-20T06:11:55.220Z,69.59
2018-02-20T06:14:23.533Z,69.87
2018-02-20T06:16:51.857Z,69.67
2018-02-20T06:19:20.124Z,69.28
2018-02-20T06:21:48.435Z,69.07
2018-02-20T06:24:16.803Z,69.30
2018-02-20T06:26:45.068Z,69.07
2018-02-20T06:29:13.402Z,69.25
2018-02-20T06:31:41.674Z,69.23
2018-02-20T06:34:09.975Z,68.80
2018-02-20T06:36:38.311Z,68.98
2018-02-20T06:39:06.611Z,68.98
2018-02-20T06:41:34.970Z,69.18
2018-02-20T06:44:03.270Z,69.50
2018-02-20T06:46:31.608Z,69.24
2018-02-20T06:48:59.915Z,69.16
2018-02-20T06:51:28.235Z,68.95
2018-02-20T06:53:56.528Z,68.80
2018-02-20T06:56:24.838Z,68.38
2018-02-20T06:58:53.138Z,68.12
2018-02-20T07:01:21.447Z,68.07
2018-02-20T07:03:49.739Z,68.35
2018-02-20T07:06:18.045Z,69.09
2018-02-20T07:08:46.348Z,68.52
2018-02-20T07:11:14.666Z,68.22
2018-02-20T07:13:43.074Z,68.29
2018-02-20T07:16:11.960Z,68.40
2018-02-20T07:18:40.274Z,68.26
2018-02-20T07:21:08.589Z,67.97
2018-02-20T07:23:36.885Z,67.82
2018-02-20T07:26:05.698Z,67.89
2018-02-20T07:28:33.974Z,67.10
2018-02-20T07:31:02.263Z,67.08
2018-02-20T07:33:30.544Z,67.37
2018-02-20T07:35:58.859Z,67.38
2018-02-20T07:38:27.190Z,66.97
2018-02-20T07:40:55.483Z,67.40
2018-02-20T07:43:23.779Z,66.91
2018-02-20T07:45:52.196Z,67.19
2018-02-20T07:48:20.489Z,66.85
2018-02-20T07:50:48.834Z,66.99
2018-02-20T07:53:17.197Z,66.52
2018-02-20T07:55:45.550Z,66.62
2018-02-20T07:58:13.866Z,66.78
2018-02-20T08:00:42.762Z,66.07
2018-02-20T08:03:11.108Z,66.13
2018-02-20T08:05:39.994Z,66.46
2018-02-20T08:08:08.403Z,65.89
2018-02-20T08:10:36.726Z,65.01
2018-02-20T08:13:05.798Z,65.30
2018-02-20T08:15:34.080Z,65.13
2018-02-20T08:18:02.437Z,65.31
2018-02-20T08:20:30.860Z,65.59
2018-02-20T08:22:59.111Z,65.75
2018-02-20T08:25:27.437Z,64.63
2018-02-20T08:27:55.727Z,65.17
2018-02-20T08:30:24.040Z,64.15
2018-02-20T08:32:52.351Z,63.94
2018-02-20T08:35:20.682Z,64.28
2018-02-20T08:37:48.961Z,64.71
2018-02-20T08:40:17.336Z,65.18
2018-02-20T08:42:45.614Z,64.85
2018-02-20T08:45:13.958Z,63.31
2018-02-20T08:47:42.259Z,63.70
2018-02-20T08:50:10.560Z,63.31
2018-02-20T08:52:38.882Z,63.74
2018-02-20T08:55:07.162Z,63.24
2018-02-20T08:57:35.483Z,63.87
2018-02-20T09:00:03.779Z,64.33
2018-02-20T09:02:32.113Z,63.60
2018-02-20T09:05:00.376Z,63.49
2018-02-20T09:07:29.444Z,62.34
2018-02-20T09:09:57.772Z,63.35
2018-02-20T09:12:26.048Z,63.13
2018-02-20T09:14:54.678Z,61.92
2018-02-20T09:17:23.022Z,61.83
2018-02-20T09:19:51.366Z,62.26
2018-02-20T09:22:19.636Z,61.67
2018-02-20T09:24:47.979Z,60.45
2018-02-20T09:27:16.294Z,59.41
2018-02-20T09:29:44.584Z,60.18
2018-02-20T09:32:12.888Z,58.91
2018-02-20T09:34:41.220Z,59.10
2018-02-20T09:37:09.527Z,58.29
2018-02-20T09:39:37.930Z,58.33
2018-02-20T09:42:07.380Z,57.84
2018-02-20T09:44:35.685Z,57.69
2018-02-20T09:47:04.222Z,57.82
2018-02-20T09:49:32.564Z,58.46
2018-02-20T09:52:00.916Z,58.72
2018-02-20T09:54:29.233Z,59.15
2018-02-20T09:56:57.564Z,58.73
2018-02-20T09:59:25.889Z,57.61
2018-02-20T10:01:54.196Z,57.91
2018-02-20T10:04:22.564Z,58.25
2018-02-20T10:06:51.110Z,57.19
2018-02-20T10:09:20.038Z,54.90
2018-02-20T10:11:48.399Z,54.89
2018-02-20T10:14:16.729Z,54.81
2018-02-20T10:16:45.040Z,54.03
2018-02-20T10:19:13.300Z,53.44
2018-02-20T10:21:41.646Z,53.19
2018-02-20T10:24:09.917Z,53.39
2018-02-20T10:26:38.216Z,52.54
2018-02-20T10:29:06.494Z,51.46
2018-02-20T10:31:34.820Z,51.48
2018-02-20T10:34:03.093Z,51.86
2018-02-20T10:36:31.500Z,51.82
2018-02-20T10:38:59.723Z,50.43
2018-02-20T10:41:28.053Z,49.38
2018-02-20T10:43:56.437Z,49.54
2018-02-20T10:46:24.768Z,47.41
2018-02-20T10:48:53.160Z,47.43
2018-02-20T10:51:21.435Z,47.31
2018-02-20T10:53:49.760Z,47.46
2018-02-20T10:56:18.061Z,47.79
2018-02-20T10:58:46.383Z,47.84
2018-02-20T11:01:14.698Z,48.76
2018-02-20T11:03:43.088Z,49.13
2018-02-20T11:06:11.410Z,49.18
2018-02-20T11:08:39.848Z,49.01
2018-02-20T11:11:08.156Z,49.34
2018-02-20T11:13:36.489Z,51.59
2018-02-20T11:16:05.618Z,52.59
2018-02-20T11:18:33.963Z,52.87
2018-02-20T11:21:02.308Z,52.81
2018-02-20T11:23:30.589Z,52.07
2018-02-20T11:25:58.905Z,51.32
2018-02-20T11:28:27.225Z,50.46
2018-02-20T11:30:55.579Z,51.64
2018-02-20T11:33:23.899Z,51.88
2018-02-20T11:35:52.224Z,51.90
2018-02-20T11:38:20.534Z,51.50
2018-02-20T11:40:48.873Z,51.26
2018-02-20T11:43:17.186Z,51.50
2018-02-20T11:45:45.464Z,51.71
2018-02-20T11:48:13.884Z,50.77
2018-02-20T11:50:42.181Z,50.90
2018-02-20T11:53:10.544Z,49.64
2018-02-20T11:55:38.864Z,49.62
2018-02-20T11:58:07.154Z,49.79
2018-02-20T12:00:35.425Z,49.05
2018-02-20T12:03:03.790Z,48.51
2018-02-20T12:05:32.061Z,49.76
2018-02-20T12:08:00.412Z,50.07
2018-02-20T12:10:28.709Z,49.60
2018-02-20T12:12:57.028Z,49.69
2018-02-20T12:15:25.391Z,49.74
2018-02-20T12:17:53.646Z,47.83
2018-02-20T12:20:21.990Z,48.91
2018-02-20T12:22:50.343Z,50.09
2018-02-20T12:25:18.663Z,50.33
2018-02-20T12:27:47.000Z,48.44
2018-02-20T12:30:15.427Z,48.88
2018-02-20T12:32:43.726Z,47.09
2018-02-20T12:35:12.363Z,47.76
2018-02-20T12:37:40.758Z,45.90
2018-02-20T12:40:09.071Z,46.34
2018-02-20T12:42:38.028Z,45.33
2018-02-20T12:45:06.293Z,45.35
2018-02-20T12:47:34.614Z,44.70
2018-02-20T12:50:02.960Z,45.42
2018-02-20T12:52:31.325Z,46.47
2018-02-20T12:54:59.641Z,46.54
2018-02-20T12:57:28.008Z,46.99
2018-02-20T12:59:56.375Z,48.07
2018-02-20T13:02:24.727Z,48.71
2018-02-20T13:04:53.004Z,48.62
2018-02-20T13:07:22.257Z,47.25
2018-02-20T13:09:50.524Z,46.79
2018-02-20T13:12:18.809Z,47.24
2018-02-20T13:14:47.108Z,47.14
2018-02-20T13:17:15.425Z,46.81
2018-02-20T13:19:43.867Z,46.44
2018-02-20T13:22:12.284Z,45.66
2018-02-20T13:24:40.596Z,45.59
2018-02-20T13:27:08.970Z,45.79
2018-02-20T13:29:37.281Z,46.05
2018-02-20T13:32:05.819Z,47.20
2018-02-20T13:34:34.159Z,48.69
2018-02-20T13:37:02.454Z,49.69
2018-02-20T13:39:30.735Z,49.60
2018-02-20T13:41:59.065Z,49.79
2018-02-20T13:44:27.399Z,50.53
2018-02-20T13:46:55.727Z,51.14
2018-02-20T13:49:23.998Z,50.52
2018-02-20T13:51:52.392Z,50.33
2018-02-20T13:54:20.684Z,50.52
2018-02-20T13:56:49.049Z,49.97
2018-02-20T13:59:17.343Z,48.15
2018-02-20T14:01:45.689Z,46.66
2018-02-20T14:04:13.985Z,46.11
2018-02-20T14:06:42.283Z,44.27
2018-02-20T14:09:10.651Z,43.96
2018-02-20T14:11:39.116Z,44.52
2018-02-20T14:14:07.514Z,43.80
2018-02-20T14:16:35.861Z,43.20
2018-02-20T14:19:04.334Z,42.53
2018-02-20T14:21:32.784Z,43.13
2018-02-20T14:24:02.125Z,44.52
2018-02-20T14:26:30.513Z,44.31
2018-02-20T14:28:59.349Z,45.00
2018-02-20T14:31:27.638Z,45.50
2018-02-20T14:33:56.288Z,45.46
2018-02-20T14:36:24.629Z,44.91
2018-02-20T14:38:53.006Z,44.39
2018-02-20T14:41:21.343Z,44.28
2018-02-20T14:43:49.644Z,45.22
2018-02-20T14:46:17.959Z,46.36
2018-02-20T14:48:46.280Z,46.41
2018-02-20T14:51:14.761Z,45.44
2018-02-20T14:53:43.093Z,46.03
2018-02-20T14:56:12.275Z,46.10
2018-02-20T14:58:40.594Z,44.70
2018-02-20T15:01:08.897Z,45.26
2018-02-20T15:03:37.607Z,45.78
2018-02-20T15:06:05.906Z,45.88
2018-02-20T15:08:34.280Z,46.37
2018-02-20T15:11:02.582Z,46.77
2018-02-20T15:13:30.962Z,46.99
2018-02-20T15:15:59.237Z,47.09
2018-02-20T15:18:27.560Z,47.20
2018-02-20T15:20:55.851Z,46.77
2018-02-20T15:23:24.226Z,46.76
2018-02-20T15:25:52.566Z,46.96
2018-02-20T15:28:20.924Z,47.00
2018-02-20T15:30:49.263Z,46.91
2018-02-20T15:33:17.592Z,47.32
2018-02-20T15:35:45.978Z,47.06
2018-02-20T15:38:14.830Z,47.26
2018-02-20T15:40:44.129Z,47.57
2018-02-20T15:43:12.452Z,47.63
2018-02-20T15:45:40.849Z,48.00
2018-02-20T15:48:09.475Z,48.28
2018-02-20T15:50:37.776Z,48.88
2018-02-20T15:53:06.100Z,48.74
2018-02-20T15:55:35.243Z,49.54
2018-02-20T15:58:03.595Z,49.37
2018-02-20T16:00:32.728Z,49.48
2018-02-20T16:03:01.061Z,49.18
2018-02-20T16:05:29.367Z,49.67
2018-02-20T16:07:57.728Z,49.77
2018-02-20T16:10:25.992Z,50.09
2018-02-20T16:12:54.411Z,50.62
2018-02-20T16:15:22.752Z,50.68
2018-02-20T16:17:51.041Z,51.02
2018-02-20T16:20:19.814Z,51.37
2018-02-20T16:22:48.115Z,51.19
2018-02-20T16:25:16.437Z,51.81
2018-02-20T16:27:44.816Z,51.70
2018-02-20T16:30:14.174Z,52.45
2018-02-20T16:32:42.530Z,52.04
2018-02-20T16:35:11.958Z,52.66
2018-02-20T16:37:40.306Z,52.65
2018-02-20T16:40:08.616Z,53.02
2018-02-20T16:42:36.910Z,53.47
2018-02-20T16:45:05.377Z,53.56
2018-02-20T16:47:33.749Z,54.39
2018-02-20T16:50:02.105Z,54.94
2018-02-20T16:52:30.391Z,54.94
2018-02-20T16:54:58.901Z,54.96
2018-02-20T16:57:28.167Z,54.78
2018-02-20T16:59:57.388Z,54.60
2018-02-20T17:02:25.864Z,54.44
2018-02-20T17:04:54.185Z,54.14
2018-02-20T17:07:22.521Z,54.15
2018-02-20T17:09:50.845Z,54.26
2018-02-20T17:12:19.157Z,54.26
2018-02-20T17:14:47.533Z,54.31
2018-02-20T17:17:15.822Z,54.11
2018-02-20T17:19:44.165Z,54.27
2018-02-20T17:22:12.469Z,54.11
2018-02-20T17:24:40.849Z,54.20
2018-02-20T17:27:09.139Z,54.34
2018-02-20T17:29:37.489Z,54.62
2018-02-20T17:32:05.824Z,54.86
2018-02-20T17:34:34.152Z,54.63
2018-02-20T17:37:02.477Z,55.04
2018-02-20T17:39:30.813Z,55.05
2018-02-20T17:41:59.096Z,55.09
2018-02-20T17:44:27.505Z,55.06
2018-02-20T17:46:55.963Z,55.56
2018-02-20T17:49:24.281Z,55.35
2018-02-20T17:51:52.596Z,55.34
2018-02-20T17:54:20.884Z,55.41
2018-02-20T17:56:49.240Z,55.59
2018-02-20T17:59:17.542Z,55.74
2018-02-20T18:01:45.901Z,55.70
2018-02-20T18:04:14.184Z,56.26
2018-02-20T18:06:42.473Z,56.20
2018-02-20T18:09:10.797Z,56.10
2018-02-20T18:11:39.102Z,56.51
2018-02-20T18:14:07.585Z,56.73
2018-02-20T18:16:35.803Z,56.65
2018-02-20T18:19:04.772Z,56.77
2018-02-20T18:21:33.039Z,56.67
2018-02-20T18:24:01.441Z,56.35
2018-02-20T18:26:29.752Z,55.94
2018-02-20T18:28:58.075Z,55.92
2018-02-20T18:31:26.392Z,55.71
2018-02-20T18:33:54.740Z,56.07
2018-02-20T18:36:23.036Z,56.17
2018-02-20T18:38:51.344Z,56.05
2018-02-20T18:41:19.679Z,56.26
2018-02-20T18:43:47.956Z,56.25
2018-02-20T18:46:16.268Z,56.62
2018-02-20T18:48:44.558Z,56.69
2018-02-20T18:51:12.925Z,56.83
2018-02-20T18:53:41.247Z,56.58
2018-02-20T18:56:09.526Z,56.50
2018-02-20T18:58:37.917Z,57.06
2018-02-20T19:01:06.197Z,57.00
2018-02-20T19:03:34.794Z,56.84
2018-02-20T19:06:03.106Z,56.76
2018-02-20T19:08:31.473Z,56.82
2018-02-20T19:10:59.784Z,56.29
2018-02-20T19:13:28.230Z,56.10
2018-02-20T19:15:56.649Z,56.33
2018-02-20T19:18:24.984Z,55.96
2018-02-20T19:20:53.289Z,56.03
2018-02-20T19:23:21.611Z,56.27
2018-02-20T19:25:49.965Z,56.65
2018-02-20T19:28:18.240Z,56.78
2018-02-20T19:30:46.910Z,56.97
2018-02-20T19:33:15.192Z,56.96
2018-02-20T19:35:43.539Z,57.29
2018-02-20T19:38:11.829Z,57.67
2018-02-20T19:40:40.135Z,57.66
2018-02-20T19:43:08.415Z,57.98
2018-02-20T19:45:36.744Z,58.33
2018-02-20T19:48:05.880Z,58.48
2018-02-20T19:50:34.174Z,58.53
2018-02-20T19:53:02.493Z,58.44
2018-02-20T19:55:30.786Z,58.56
2018-02-20T19:57:59.103Z,58.72
2018-02-20T20:00:27.428Z,58.71
2018-02-20T20:02:55.700Z,58.35
2018-02-20T20:05:24.012Z,58.46
2018-02-20T20:07:52.277Z,59.32
2018-02-20T20:10:20.569Z,59.55
2018-02-20T20:12:48.937Z,59.48
2018-02-20T20:15:17.147Z,59.34
2018-02-20T20:17:45.413Z,59.46
2018-02-20T20:20:13.812Z,59.83
2018-02-20T20:22:42.137Z,60.74
2018-02-20T20:25:12.952Z,61.58
2018-02-20T20:27:41.250Z,61.61
2018-02-20T20:30:09.586Z,61.08
2018-02-20T20:32:37.863Z,60.73
2018-02-20T20:35:06.127Z,60.39
2018-02-20T20:37:35.228Z,60.44
2018-02-20T20:40:03.504Z,60.35
2018-02-20T20:42:31.820Z,60.11
2018-02-20T20:45:00.100Z,60.50
2018-02-20T20:47:28.434Z,61.13
2018-02-20T20:49:56.748Z,60.67
2018-02-20T20:52:25.025Z,61.16
2018-02-20T20:54:53.319Z,61.18
2018-02-20T20:57:21.589Z,61.44
2018-02-20T20:59:49.908Z,61.64
2018-02-20T21:02:18.221Z,61.54
2018-02-20T21:04:46.493Z,61.03
2018-02-20T21:07:14.787Z,61.04
2018-02-20T21:09:43.049Z,61.26
2018-02-20T21:12:11.384Z,61.01
2018-02-20T21:17:14.147Z,61.10
2018-02-20T21:19:42.543Z,60.79
2018-02-20T21:22:10.880Z,61.12
2018-02-20T21:24:39.167Z,61.18
2018-02-20T21:27:08.163Z,60.93
2018-02-20T21:29:36.438Z,61.07
2018-02-20T21:32:04.930Z,61.00
2018-02-20T21:34:33.216Z,61.58
2018-02-20T21:37:01.484Z,61.07
2018-02-20T21:39:29.826Z,60.71
2018-02-20T21:41:58.111Z,60.37
2018-02-20T21:44:26.403Z,59.95
2018-02-20T21:46:54.681Z,59.12
2018-02-20T21:49:23.064Z,58.85
2018-02-20T21:51:51.297Z,59.40
2018-02-20T21:54:19.634Z,59.57
2018-02-20T21:56:47.906Z,58.77
2018-02-20T21:59:16.184Z,59.31
2018-02-20T22:01:44.528Z,59.97
2018-02-20T22:04:12.787Z,59.62
2018-02-20T22:06:41.090Z,59.27
2018-02-20T22:09:09.387Z,59.26
2018-02-20T22:11:37.674Z,58.81
2018-02-20T22:14:05.934Z,58.79
2018-02-20T22:16:34.235Z,58.89
2018-02-20T22:19:02.490Z,59.04
2018-02-20T22:21:30.777Z,59.05
2018-02-20T22:23:59.088Z,58.73
2018-02-20T22:26:27.388Z,58.68
2018-02-20T22:28:55.702Z,58.54
2018-02-20T22:31:23.980Z,58.19
2018-02-20T22:33:52.276Z,58.23
2018-02-20T22:36:20.541Z,58.17
2018-02-20T22:38:48.841Z,58.91
2018-02-20T22:41:17.119Z,59.13
2018-02-20T22:43:45.413Z,59.71
2018-02-20T22:46:13.697Z,59.79
2018-02-20T22:48:41.995Z,59.66
2018-02-20T22:51:10.296Z,59.83
2018-02-20T22:53:38.605Z,59.62
2018-02-20T22:56:06.876Z,58.97
2018-02-20T22:58:35.184Z,58.32
2018-02-20T23:01:03.492Z,58.38
2018-02-20T23:03:31.779Z,58.83
2018-02-20T23:06:00.088Z,59.30
2018-02-20T23:08:28.376Z,60.03
2018-02-20T23:10:56.695Z,60.18
2018-02-20T23:13:24.964Z,59.88
2018-02-20T23:15:54.084Z,59.65
2018-02-20T23:18:22.340Z,59.21
2018-02-20T23:20:50.644Z,59.25
2018-02-20T23:23:18.920Z,59.42
2018-02-20T23:25:47.244Z,59.71
2018-02-20T23:28:15.528Z,59.59
2018-02-20T23:30:43.803Z,59.45
2018-02-20T23:33:12.108Z,59.47
2018-02-20T23:35:40.397Z,59.79
2018-02-20T23:38:08.711Z,59.70
2018-02-20T23:40:37.000Z,59.63
2018-02-20T23:43:05.301Z,60.17
2018-02-20T23:45:34.172Z,60.20
2018-02-20T23:48:02.469Z,60.37
2018-02-20T23:50:30.756Z,59.96
2018-02-20T23:52:59.061Z,59.99
2018-02-20T23:55:27.347Z,59.99
2018-02-20T23:57:55.689Z,60.50
